createdAt,value
2017-09-15T00:00:57.145Z,3.35
2017-09-15T00:03:23.398Z,2.65
2017-09-15T00:05:49.733Z,3.25
2017-09-15T00:08:16.272Z,2.80
2017-09-15T00:10:42.705Z,2.83
2017-09-15T00:13:09.025Z,3.45
2017-09-15T00:15:35.250Z,3.17
2017-09-15T00:18:01.499Z,2.78
2017-09-15T00:20:27.818Z,2.00
2017-09-15T00:22:54.154Z,2.65
2017-09-15T00:25:20.494Z,2.40
2017-09-15T00:27:46.937Z,1.98
2017-09-15T00:30:13.266Z,4.20
2017-09-15T00:32:39.583Z,3.72
2017-09-15T00:35:05.931Z,3.25
2017-09-15T00:37:32.262Z,3.10
2017-09-15T00:39:58.675Z,3.65
2017-09-15T00:42:25.220Z,3.33
2017-09-15T00:44:52.277Z,3.78
2017-09-15T00:47:18.492Z,3.10
2017-09-15T00:49:44.822Z,2.72
2017-09-15T00:52:11.076Z,2.40
2017-09-15T00:54:37.305Z,3.10
2017-09-15T00:57:03.636Z,2.40
2017-09-15T00:59:29.977Z,2.92
2017-09-15T01:01:56.499Z,2.60
2017-09-15T01:04:22.738Z,4.45
2017-09-15T01:06:49.073Z,2.70
2017-09-15T01:09:15.393Z,3.70
2017-09-15T01:11:42.321Z,2.10
2017-09-15T01:14:08.671Z,2.03
2017-09-15T01:16:35.004Z,1.80
2017-09-15T01:19:01.336Z,2.33
2017-09-15T01:21:27.558Z,2.30
2017-09-15T01:23:53.801Z,2.78
2017-09-15T01:26:20.111Z,3.65
2017-09-15T01:28:46.446Z,2.50
2017-09-15T01:31:12.787Z,2.35
2017-09-15T01:33:39.541Z,1.55
2017-09-15T01:36:05.872Z,2.75
2017-09-15T01:38:32.100Z,2.65
2017-09-15T01:40:58.424Z,2.40
2017-09-15T01:43:24.843Z,2.12
2017-09-15T01:45:51.094Z,2.00
2017-09-15T01:48:17.419Z,1.92
2017-09-15T01:50:43.741Z,2.50
2017-09-15T01:53:09.979Z,1.90
2017-09-15T01:55:36.219Z,2.70
2017-09-15T01:58:02.945Z,2.45
2017-09-15T02:00:29.283Z,1.62
2017-09-15T02:02:55.614Z,2.17
2017-09-15T02:05:21.833Z,2.40
2017-09-15T02:07:48.166Z,1.98
2017-09-15T02:10:14.824Z,1.83
2017-09-15T02:12:41.657Z,1.55
2017-09-15T02:15:08.005Z,2.10
2017-09-15T02:17:34.332Z,1.98
2017-09-15T02:20:00.562Z,2.20
2017-09-15T02:22:27.008Z,2.22
2017-09-15T02:24:53.332Z,1.98
2017-09-15T02:27:19.641Z,1.48
2017-09-15T02:29:45.986Z,1.90
2017-09-15T02:32:12.315Z,3.42
2017-09-15T02:34:38.667Z,2.80
2017-09-15T02:37:05.406Z,2.35
2017-09-15T02:39:31.728Z,2.30
2017-09-15T02:41:58.253Z,2.55
2017-09-15T02:44:24.605Z,3.30
2017-09-15T02:46:51.019Z,2.92
2017-09-15T02:49:17.366Z,3.60
2017-09-15T02:51:43.805Z,4.15
2017-09-15T02:54:10.123Z,2.70
2017-09-15T02:56:36.468Z,3.97
2017-09-15T02:59:02.792Z,3.25
2017-09-15T03:01:29.025Z,4.00
2017-09-15T03:03:55.368Z,3.10
2017-09-15T03:06:22.006Z,4.00
2017-09-15T03:08:48.221Z,3.85
2017-09-15T03:11:14.548Z,3.33
2017-09-15T03:13:41.402Z,3.85
2017-09-15T03:16:07.951Z,5.20
2017-09-15T03:18:34.272Z,4.70
2017-09-15T03:21:00.598Z,6.35
2017-09-15T03:23:26.933Z,7.90
2017-09-15T03:25:53.154Z,6.32
2017-09-15T03:28:19.589Z,7.53
2017-09-15T03:30:45.838Z,6.03
2017-09-15T03:33:12.170Z,6.50
2017-09-15T03:35:38.499Z,4.95
2017-09-15T03:38:04.727Z,2.60
2017-09-15T03:40:31.056Z,3.92
2017-09-15T03:42:57.379Z,2.65
2017-09-15T03:45:23.622Z,2.80
2017-09-15T03:47:50.060Z,2.60
2017-09-15T03:50:16.471Z,2.85
2017-09-15T03:52:42.908Z,2.33
2017-09-15T03:55:09.167Z,2.95
2017-09-15T03:57:35.485Z,2.60
2017-09-15T04:00:01.910Z,2.80
2017-09-15T04:02:28.460Z,2.55
2017-09-15T04:04:54.923Z,3.05
2017-09-15T04:07:21.323Z,3.00
2017-09-15T04:09:47.652Z,2.60
2017-09-15T04:12:14.406Z,2.42
2017-09-15T04:14:41.230Z,2.17
2017-09-15T04:17:07.586Z,3.40
2017-09-15T04:19:34.138Z,3.00
2017-09-15T04:22:00.483Z,3.12
2017-09-15T04:24:26.667Z,3.00
2017-09-15T04:26:52.909Z,2.17
2017-09-15T04:29:19.229Z,2.87
2017-09-15T04:31:45.558Z,2.42
2017-09-15T04:34:11.785Z,2.78
2017-09-15T04:36:38.070Z,2.08
2017-09-15T04:39:04.442Z,2.17
2017-09-15T04:41:30.686Z,2.10
2017-09-15T04:43:57.226Z,2.72
2017-09-15T04:46:23.451Z,3.05
2017-09-15T04:48:50.107Z,2.80
2017-09-15T04:51:16.414Z,3.00
2017-09-15T04:53:42.970Z,2.40
2017-09-15T04:56:09.249Z,2.60
2017-09-15T04:58:35.935Z,2.03
2017-09-15T05:01:02.441Z,1.98
2017-09-15T05:03:28.849Z,2.72
2017-09-15T05:05:55.030Z,2.12
2017-09-15T05:08:21.385Z,2.45
2017-09-15T05:10:47.791Z,2.12
2017-09-15T05:13:14.046Z,2.10
2017-09-15T05:15:40.468Z,3.37
2017-09-15T05:18:06.805Z,2.63
2017-09-15T05:20:33.228Z,3.37
2017-09-15T05:22:59.749Z,3.33
2017-09-15T05:25:26.112Z,5.10
2017-09-15T05:27:52.857Z,3.30
2017-09-15T05:30:19.087Z,4.27
2017-09-15T05:32:45.903Z,3.93
2017-09-15T05:35:12.145Z,4.80
2017-09-15T05:37:38.487Z,3.70
2017-09-15T05:40:05.132Z,3.57
2017-09-15T05:42:31.671Z,3.07
2017-09-15T05:44:57.984Z,3.23
2017-09-15T05:47:24.207Z,3.07
2017-09-15T05:49:50.541Z,3.23
2017-09-15T05:52:16.788Z,2.70
2017-09-15T05:54:43.119Z,3.00
2017-09-15T05:57:09.754Z,2.63
2017-09-15T05:59:35.980Z,3.67
2017-09-15T06:02:02.206Z,3.83
2017-09-15T06:04:28.482Z,4.10
2017-09-15T06:06:54.985Z,4.67
2017-09-15T06:09:21.296Z,5.00
2017-09-15T06:11:47.749Z,5.63
2017-09-15T06:14:13.959Z,6.70
2017-09-15T06:16:40.520Z,5.87
2017-09-15T06:19:06.731Z,5.80
2017-09-15T06:21:33.184Z,4.57
2017-09-15T06:23:59.801Z,4.80
2017-09-15T06:26:26.257Z,4.00
2017-09-15T06:28:52.580Z,3.80
2017-09-15T06:31:19.311Z,4.57
2017-09-15T06:33:45.970Z,4.10
2017-09-15T06:36:12.718Z,5.40
2017-09-15T06:38:38.996Z,4.37
2017-09-15T06:41:05.226Z,4.27
2017-09-15T06:43:31.564Z,5.50
2017-09-15T06:45:57.793Z,6.40
2017-09-15T06:48:24.880Z,6.13
2017-09-15T06:50:51.192Z,7.83
2017-09-15T06:53:17.337Z,9.50
2017-09-15T06:55:43.544Z,5.07
2017-09-15T06:58:09.855Z,5.53
2017-09-15T07:00:36.153Z,3.37
2017-09-15T07:03:02.768Z,3.23
2017-09-15T07:05:28.946Z,2.93
2017-09-15T07:07:55.255Z,6.13
2017-09-15T07:10:21.574Z,5.23
2017-09-15T07:12:47.817Z,5.33
2017-09-15T07:15:14.057Z,5.73
2017-09-15T07:17:40.302Z,3.97
2017-09-15T07:20:06.499Z,6.60
2017-09-15T07:22:32.768Z,7.27
2017-09-15T07:24:58.954Z,6.00
2017-09-15T07:27:25.245Z,7.73
2017-09-15T07:29:51.487Z,5.30
2017-09-15T07:32:17.699Z,4.53
2017-09-15T07:34:44.003Z,3.43
2017-09-15T07:37:10.203Z,3.03
2017-09-15T07:39:36.661Z,3.07
2017-09-15T07:42:02.961Z,2.60
2017-09-15T07:44:29.388Z,1.90
2017-09-15T07:46:55.694Z,1.67
2017-09-15T07:49:22.267Z,1.90
2017-09-15T07:51:48.589Z,2.30
2017-09-15T07:54:14.790Z,1.70
2017-09-15T07:56:41.407Z,1.90
2017-09-15T07:59:07.717Z,1.23
2017-09-15T08:01:34.013Z,2.50
2017-09-15T08:04:00.595Z,1.60
2017-09-15T08:06:27.715Z,1.90
2017-09-15T08:08:54.026Z,1.90
2017-09-15T08:11:20.208Z,1.83
2017-09-15T08:13:46.418Z,1.90
2017-09-15T08:16:13.227Z,1.67
2017-09-15T08:18:39.515Z,1.60
2017-09-15T08:21:05.736Z,2.10
2017-09-15T08:23:32.040Z,1.97
2017-09-15T08:25:58.198Z,2.00
2017-09-15T08:28:24.816Z,1.70
2017-09-15T08:30:51.048Z,2.00
2017-09-15T08:33:17.264Z,1.73
2017-09-15T08:35:43.596Z,1.80
2017-09-15T08:38:09.927Z,2.00
2017-09-15T08:40:36.487Z,1.90
2017-09-15T08:43:02.750Z,2.30
2017-09-15T08:45:29.061Z,3.10
2017-09-15T08:47:55.404Z,2.07
2017-09-15T08:50:21.623Z,2.07
2017-09-15T08:52:47.840Z,3.13
2017-09-15T08:55:14.214Z,2.83
2017-09-15T08:57:40.506Z,2.00
2017-09-15T09:00:06.717Z,2.20
2017-09-15T09:02:32.947Z,1.47
2017-09-15T09:04:59.152Z,1.57
2017-09-15T09:07:25.506Z,1.40
2017-09-15T09:09:51.726Z,1.70
2017-09-15T09:12:18.275Z,1.90
2017-09-15T09:14:44.601Z,1.77
2017-09-15T09:17:10.817Z,1.77
2017-09-15T09:19:37.359Z,1.60
2017-09-15T09:22:03.673Z,2.27
2017-09-15T09:24:29.932Z,1.43
2017-09-15T09:26:56.364Z,2.30
2017-09-15T09:29:22.585Z,1.80
2017-09-15T09:31:48.945Z,2.03
2017-09-15T09:34:15.676Z,2.20
2017-09-15T09:36:42.103Z,1.70
2017-09-15T09:39:08.432Z,1.80
2017-09-15T09:41:34.746Z,1.77
2017-09-15T09:44:01.315Z,1.90
2017-09-15T09:46:27.638Z,2.07
2017-09-15T09:48:53.945Z,1.70
2017-09-15T09:51:20.503Z,1.40
2017-09-15T09:53:46.841Z,1.90
2017-09-15T09:56:13.164Z,1.73
2017-09-15T09:58:39.872Z,1.60
2017-09-15T10:01:06.172Z,2.00
2017-09-15T10:03:32.535Z,1.80
2017-09-15T10:05:58.902Z,2.40
2017-09-15T10:08:25.571Z,1.80
2017-09-15T10:10:51.778Z,2.00
2017-09-15T10:13:18.233Z,2.30
2017-09-15T10:15:44.526Z,1.90
2017-09-15T10:18:10.770Z,2.03
2017-09-15T10:20:37.002Z,1.50
2017-09-15T10:23:04.175Z,1.90
2017-09-15T10:25:30.368Z,1.87
2017-09-15T10:27:57.422Z,1.80
2017-09-15T10:30:23.879Z,1.80
2017-09-15T10:32:50.186Z,1.93
2017-09-15T10:35:16.836Z,1.80
2017-09-15T10:37:43.277Z,2.17
2017-09-15T10:40:09.592Z,1.83
2017-09-15T10:42:35.812Z,2.07
2017-09-15T10:45:02.151Z,1.60
2017-09-15T10:47:28.388Z,1.60
2017-09-15T10:49:54.757Z,1.63
2017-09-15T10:52:21.037Z,1.60
2017-09-15T10:54:47.290Z,2.10
2017-09-15T10:57:13.621Z,1.63
2017-09-15T10:59:39.962Z,2.20
2017-09-15T11:02:06.781Z,1.50
2017-09-15T11:04:33.427Z,1.33
2017-09-15T11:06:59.766Z,1.60
2017-09-15T11:09:25.973Z,1.67
2017-09-15T11:11:52.419Z,2.20
2017-09-15T11:14:18.777Z,1.90
2017-09-15T11:16:45.185Z,2.20
2017-09-15T11:19:11.432Z,1.70
2017-09-15T11:21:38.055Z,2.17
2017-09-15T11:24:04.302Z,1.70
2017-09-15T11:26:31.246Z,1.93
2017-09-15T11:28:57.562Z,1.67
2017-09-15T11:31:23.827Z,1.97
2017-09-15T11:33:50.035Z,1.80
2017-09-15T11:36:16.362Z,1.77
2017-09-15T11:38:42.611Z,1.80
2017-09-15T11:41:09.150Z,2.00
2017-09-15T11:43:35.462Z,1.80
2017-09-15T11:46:02.100Z,1.80
2017-09-15T11:48:28.859Z,2.33
2017-09-15T11:50:55.187Z,1.60
2017-09-15T11:53:21.536Z,2.00
2017-09-15T11:55:48.057Z,1.60
2017-09-15T11:58:14.405Z,2.10
2017-09-15T12:00:41.335Z,1.50
2017-09-15T12:03:07.640Z,1.70
2017-09-15T12:05:34.095Z,2.10
2017-09-15T12:08:00.434Z,1.43
2017-09-15T12:10:26.801Z,1.07
2017-09-15T12:12:53.195Z,1.50
2017-09-15T12:15:19.629Z,1.37
2017-09-15T12:17:46.072Z,1.30
2017-09-15T12:20:12.495Z,1.33
2017-09-15T12:22:38.941Z,1.50
2017-09-15T12:25:05.364Z,1.30
2017-09-15T12:27:31.587Z,1.17
2017-09-15T12:29:57.920Z,1.20
2017-09-15T12:32:24.272Z,1.77
2017-09-15T12:34:50.482Z,1.60
2017-09-15T12:37:16.735Z,1.57
2017-09-15T12:39:43.247Z,1.63
2017-09-15T12:42:09.600Z,1.70
2017-09-15T12:44:35.773Z,1.50
2017-09-15T12:47:02.366Z,1.30
2017-09-15T12:49:28.689Z,1.43
2017-09-15T12:51:54.892Z,1.40
2017-09-15T12:54:21.590Z,1.10
2017-09-15T12:56:47.876Z,1.10
2017-09-15T12:59:14.240Z,1.70
2017-09-15T13:01:41.179Z,1.60
2017-09-15T13:04:07.494Z,1.57
2017-09-15T13:06:33.726Z,1.53
2017-09-15T13:09:00.089Z,1.40
2017-09-15T13:11:26.440Z,1.47
2017-09-15T13:13:52.857Z,1.73
2017-09-15T13:16:19.265Z,1.83
2017-09-15T13:18:45.609Z,1.70
2017-09-15T13:21:12.037Z,1.57
2017-09-15T13:23:38.355Z,1.43
2017-09-15T13:26:05.715Z,1.30
2017-09-15T13:28:32.041Z,1.50
2017-09-15T13:30:58.389Z,1.40
2017-09-15T13:33:24.934Z,1.13
2017-09-15T13:35:51.097Z,1.47
2017-09-15T13:38:17.364Z,1.67
2017-09-15T13:40:43.712Z,1.23
2017-09-15T13:43:10.042Z,1.50
2017-09-15T13:45:36.357Z,1.20
2017-09-15T13:48:02.709Z,1.40
2017-09-15T13:50:29.043Z,1.37
2017-09-15T13:52:55.271Z,1.47
2017-09-15T13:55:21.606Z,1.40
2017-09-15T13:57:48.247Z,1.27
2017-09-15T14:00:14.568Z,1.40
2017-09-15T14:02:41.225Z,1.63
2017-09-15T14:05:07.549Z,1.50
2017-09-15T14:07:33.760Z,1.67
2017-09-15T14:10:00.220Z,1.60
2017-09-15T14:12:27.152Z,1.33
2017-09-15T14:14:53.794Z,1.70
2017-09-15T14:17:20.534Z,1.70
2017-09-15T14:19:47.055Z,1.43
2017-09-15T14:22:14.087Z,1.67
2017-09-15T14:24:40.440Z,1.30
2017-09-15T14:27:07.760Z,1.47
2017-09-15T14:29:34.562Z,1.20
2017-09-15T14:32:00.870Z,1.10
2017-09-15T14:34:27.122Z,1.10
2017-09-15T14:36:53.574Z,1.30
2017-09-15T14:39:19.863Z,1.30
2017-09-15T14:41:46.417Z,1.33
2017-09-15T14:44:15.635Z,1.50
2017-09-15T14:46:43.489Z,1.63
2017-09-15T14:49:10.125Z,1.77
2017-09-15T14:51:36.862Z,1.30
2017-09-15T14:54:03.209Z,1.57
2017-09-15T14:56:29.848Z,1.27
2017-09-15T14:58:56.187Z,1.83
2017-09-15T15:01:22.504Z,1.20
2017-09-15T15:03:48.840Z,1.30
2017-09-15T15:06:15.154Z,1.73
2017-09-15T15:08:41.387Z,1.60
2017-09-15T15:11:07.729Z,1.17
2017-09-15T15:13:34.159Z,1.40
2017-09-15T15:16:00.414Z,1.60
2017-09-15T15:18:26.830Z,1.27
2017-09-15T15:20:53.787Z,1.70
2017-09-15T15:23:20.421Z,1.10
2017-09-15T15:25:46.737Z,1.97
2017-09-15T15:28:13.091Z,1.60
2017-09-15T15:30:39.511Z,1.70
2017-09-15T15:33:05.837Z,1.47
2017-09-15T15:35:32.289Z,1.50
2017-09-15T15:37:58.599Z,1.63
2017-09-15T15:40:24.931Z,2.00
2017-09-15T15:42:51.319Z,1.60
2017-09-15T15:45:18.224Z,2.43
2017-09-15T15:47:44.536Z,2.70
2017-09-15T15:50:10.892Z,2.27
2017-09-15T15:52:37.206Z,2.27
2017-09-15T15:55:03.509Z,2.20
2017-09-15T15:57:29.826Z,2.30
2017-09-15T15:59:56.823Z,2.50
2017-09-15T16:02:23.122Z,2.70
2017-09-15T16:04:49.708Z,2.77
2017-09-15T16:07:16.057Z,2.37
2017-09-15T16:09:42.470Z,2.83
2017-09-15T16:12:09.000Z,3.30
2017-09-15T16:14:35.299Z,3.43
2017-09-15T16:17:01.469Z,3.33
2017-09-15T16:19:27.683Z,3.07
2017-09-15T16:21:53.995Z,3.60
2017-09-15T16:24:20.250Z,2.50
2017-09-15T16:26:46.420Z,2.77
2017-09-15T16:29:12.732Z,2.33
2017-09-15T16:31:38.954Z,3.47
2017-09-15T16:34:05.488Z,3.40
2017-09-15T16:36:31.916Z,3.40
2017-09-15T16:38:58.360Z,3.80
2017-09-15T16:41:24.560Z,4.00
2017-09-15T16:43:51.007Z,3.27
2017-09-15T16:46:17.215Z,3.57
2017-09-15T16:48:43.533Z,2.43
2017-09-15T16:51:09.990Z,3.40
2017-09-15T16:53:36.605Z,3.10
2017-09-15T16:56:02.983Z,2.83
2017-09-15T16:58:29.484Z,3.77
2017-09-15T17:00:55.747Z,3.07
2017-09-15T17:03:22.380Z,4.03
2017-09-15T17:05:48.611Z,3.30
2017-09-15T17:08:15.552Z,3.40
2017-09-15T17:10:42.098Z,3.87
2017-09-15T17:13:08.437Z,4.00
2017-09-15T17:15:35.174Z,4.23
2017-09-15T17:18:01.484Z,4.37
2017-09-15T17:20:27.801Z,3.40
2017-09-15T17:22:54.282Z,4.43
2017-09-15T17:25:20.510Z,4.03
2017-09-15T17:27:47.139Z,4.23
2017-09-15T17:30:13.351Z,5.80
2017-09-15T17:32:39.513Z,5.37
2017-09-15T17:35:06.043Z,4.80
2017-09-15T17:37:32.326Z,5.43
2017-09-15T17:39:58.889Z,4.47
2017-09-15T17:42:25.137Z,4.07
2017-09-15T17:44:51.473Z,3.10
2017-09-15T17:47:17.791Z,2.73
2017-09-15T17:49:44.127Z,2.47
2017-09-15T17:52:10.734Z,2.40
2017-09-15T17:54:37.004Z,3.33
2017-09-15T17:57:03.331Z,4.17
2017-09-15T17:59:29.770Z,6.00
2017-09-15T18:01:56.311Z,3.80
2017-09-15T18:04:22.837Z,4.53
2017-09-15T18:06:49.370Z,4.97
2017-09-15T18:09:15.703Z,4.13
2017-09-15T18:11:41.928Z,3.90
2017-09-15T18:14:08.467Z,3.23
2017-09-15T18:16:34.714Z,4.17
2017-09-15T18:19:01.139Z,3.73
2017-09-15T18:21:27.674Z,3.37
2017-09-15T18:23:54.731Z,3.00
2017-09-15T18:26:21.149Z,5.73
2017-09-15T18:28:47.491Z,3.90
2017-09-15T18:31:13.975Z,5.37
2017-09-15T18:33:40.347Z,4.77
2017-09-15T18:36:07.003Z,3.23
2017-09-15T18:38:33.532Z,3.60
2017-09-15T18:41:00.255Z,4.07
2017-09-15T18:43:26.468Z,4.60
2017-09-15T18:45:52.936Z,3.97
2017-09-15T18:48:19.537Z,4.73
2017-09-15T18:50:45.893Z,4.97
2017-09-15T18:53:12.139Z,4.40
2017-09-15T18:55:38.699Z,4.00
2017-09-15T18:58:05.023Z,3.20
2017-09-15T19:00:31.346Z,4.00
2017-09-15T19:02:57.695Z,4.70
2017-09-15T19:05:23.996Z,3.50
2017-09-15T19:07:50.208Z,4.23
2017-09-15T19:10:17.387Z,4.32
2017-09-15T19:12:44.419Z,3.53
2017-09-15T19:15:10.868Z,3.63
2017-09-15T19:17:37.298Z,4.20
2017-09-15T19:20:03.749Z,3.37
2017-09-15T19:22:30.271Z,4.72
2017-09-15T19:24:56.705Z,4.30
2017-09-15T19:27:23.238Z,4.15
2017-09-15T19:29:49.467Z,3.80
2017-09-15T19:32:16.118Z,3.97
2017-09-15T19:34:42.325Z,3.97
2017-09-15T19:37:08.876Z,2.90
2017-09-15T19:39:35.200Z,3.92
2017-09-15T19:42:02.050Z,3.08
2017-09-15T19:44:28.988Z,3.55
2017-09-15T19:46:55.330Z,3.22
2017-09-15T19:49:21.663Z,2.75
2017-09-15T19:51:48.204Z,3.33
2017-09-15T19:54:14.528Z,3.20
2017-09-15T19:56:40.923Z,3.30
2017-09-15T19:59:07.201Z,4.22
2017-09-15T20:01:33.388Z,3.40
2017-09-15T20:03:59.646Z,3.30
2017-09-15T20:06:25.878Z,3.60
2017-09-15T20:08:52.237Z,3.42
2017-09-15T20:11:18.550Z,3.58
2017-09-15T20:13:45.207Z,3.22
2017-09-15T20:16:11.647Z,4.03
2017-09-15T20:18:37.963Z,3.72
2017-09-15T20:21:04.288Z,3.35
2017-09-15T20:23:30.513Z,3.40
2017-09-15T20:25:56.779Z,4.87
2017-09-15T20:28:22.957Z,3.37
2017-09-15T20:30:49.408Z,3.45
2017-09-15T20:33:15.740Z,2.45
2017-09-15T20:35:42.478Z,4.72
2017-09-15T20:38:08.924Z,3.50
2017-09-15T20:40:35.482Z,3.17
2017-09-15T20:43:01.916Z,4.45
2017-09-15T20:45:28.238Z,4.75
2017-09-15T20:47:55.178Z,2.97
2017-09-15T20:50:21.401Z,4.05
2017-09-15T20:52:47.640Z,3.20
2017-09-15T20:55:14.258Z,2.97
2017-09-15T20:57:40.607Z,3.15
2017-09-15T21:00:06.937Z,3.00
2017-09-15T21:02:33.252Z,3.35
2017-09-15T21:04:59.685Z,2.60
2017-09-15T21:07:26.023Z,3.17
2017-09-15T21:09:52.547Z,3.05
2017-09-15T21:12:18.907Z,2.53
2017-09-15T21:14:45.140Z,3.00
2017-09-15T21:17:11.455Z,2.90
2017-09-15T21:19:37.890Z,2.80
2017-09-15T21:22:04.428Z,2.85
2017-09-15T21:24:30.762Z,2.97
2017-09-15T21:26:57.098Z,3.40
2017-09-15T21:29:23.834Z,3.70
2017-09-15T21:31:50.074Z,3.03
2017-09-15T21:34:16.300Z,2.75
2017-09-15T21:36:42.925Z,2.72
2017-09-15T21:39:09.364Z,2.33
2017-09-15T21:41:35.710Z,3.33
2017-09-15T21:44:01.952Z,2.85
2017-09-15T21:46:28.681Z,2.53
2017-09-15T21:48:55.023Z,3.87
2017-09-15T21:51:21.457Z,3.35
2017-09-15T21:53:47.762Z,3.10
2017-09-15T21:56:14.120Z,2.65
2017-09-15T21:58:40.644Z,2.40
2017-09-15T22:01:06.968Z,3.78
2017-09-15T22:03:33.310Z,3.08
2017-09-15T22:05:59.730Z,2.87
2017-09-15T22:08:26.069Z,2.60
2017-09-15T22:10:52.857Z,3.42
2017-09-15T22:13:19.139Z,3.33
2017-09-15T22:15:45.362Z,2.75
2017-09-15T22:18:12.027Z,2.53
2017-09-15T22:20:38.386Z,2.62
2017-09-15T22:23:04.567Z,1.62
2017-09-15T22:25:30.806Z,3.05
2017-09-15T22:27:57.345Z,2.87
2017-09-15T22:30:23.667Z,3.67
2017-09-15T22:32:49.993Z,3.45
2017-09-15T22:35:16.364Z,3.72
2017-09-15T22:37:42.568Z,2.75
2017-09-15T22:40:08.905Z,3.30
2017-09-15T22:42:35.127Z,3.72
2017-09-15T22:45:01.468Z,2.67
2017-09-15T22:47:28.205Z,2.72
2017-09-15T22:49:54.544Z,2.78
2017-09-15T22:52:20.771Z,2.40
2017-09-15T22:54:46.997Z,4.35
2017-09-15T22:57:13.645Z,4.70
2017-09-15T22:59:39.964Z,3.80
2017-09-15T23:02:06.505Z,4.05
2017-09-15T23:04:32.741Z,3.78
2017-09-15T23:06:59.064Z,3.60
2017-09-15T23:09:25.401Z,3.10
2017-09-15T23:11:51.733Z,3.60
2017-09-15T23:14:18.089Z,3.15
2017-09-15T23:16:44.407Z,3.10
2017-09-15T23:19:10.721Z,4.03
2017-09-15T23:21:37.051Z,3.90
2017-09-15T23:24:03.404Z,4.43
2017-09-15T23:26:29.814Z,4.32
2017-09-15T23:28:56.050Z,3.40
2017-09-15T23:31:22.386Z,4.22
2017-09-15T23:33:48.601Z,4.05
2017-09-15T23:36:14.834Z,3.65
2017-09-15T23:38:41.177Z,4.10
2017-09-15T23:41:07.517Z,3.80
2017-09-15T23:43:33.826Z,4.00
2017-09-15T23:46:00.594Z,4.07
2017-09-15T23:48:26.919Z,3.50
2017-09-15T23:50:53.880Z,3.40
2017-09-15T23:53:20.511Z,4.68
2017-09-15T23:55:46.719Z,3.33
2017-09-15T23:58:13.080Z,3.53
